sensor_id;sensor_type;location;lat;lon;timestamp;P1;durP1;ratioP1;P2;durP2;ratioP2
75847;SDS011;65750;47.540;19.090;2023-04-24T00:02:30;7.12;;;4.30;;
75847;SDS011;65750;47.540;19.090;2023-04-24T00:04:57;5.47;;;4.20;;
75847;SDS011;65750;47.540;19.090;2023-04-24T00:07:27;6.07;;;4.50;;
75847;SDS011;65750;47.540;19.090;2023-04-24T00:09:54;5.75;;;4.28;;
75847;SDS011;65750;47.540;19.090;2023-04-24T00:12:22;7.15;;;4.15;;
75847;SDS011;65750;47.540;19.090;2023-04-24T00:14:50;5.70;;;4.28;;
75847;SDS011;65750;47.540;19.090;2023-04-24T00:17:17;5.37;;;4.20;;
75847;SDS011;65750;47.540;19.090;2023-04-24T00:19:45;7.13;;;4.27;;
75847;SDS011;65750;47.540;19.090;2023-04-24T00:22:12;5.22;;;4.15;;
75847;SDS011;65750;47.540;19.090;2023-04-24T00:24:39;5.35;;;3.85;;
75847;SDS011;65750;47.540;19.090;2023-04-24T00:27:07;5.97;;;4.50;;
75847;SDS011;65750;47.540;19.090;2023-04-24T00:29:34;5.78;;;4.20;;
75847;SDS011;65750;47.540;19.090;2023-04-24T00:32:02;5.10;;;3.87;;
75847;SDS011;65750;47.540;19.090;2023-04-24T00:34:31;5.43;;;3.72;;
75847;SDS011;65750;47.540;19.090;2023-04-24T00:36:59;4.87;;;3.67;;
75847;SDS011;65750;47.540;19.090;2023-04-24T00:39:26;6.00;;;4.30;;
75847;SDS011;65750;47.540;19.090;2023-04-24T00:41:54;5.45;;;4.18;;
75847;SDS011;65750;47.540;19.090;2023-04-24T00:44:22;6.77;;;4.30;;
75847;SDS011;65750;47.540;19.090;2023-04-24T00:46:49;5.22;;;3.97;;
75847;SDS011;65750;47.540;19.090;2023-04-24T00:49:22;5.62;;;3.90;;
75847;SDS011;65750;47.540;19.090;2023-04-24T00:51:49;5.65;;;4.07;;
75847;SDS011;65750;47.540;19.090;2023-04-24T00:54:16;5.55;;;3.87;;
75847;SDS011;65750;47.540;19.090;2023-04-24T00:56:44;6.03;;;4.20;;
75847;SDS011;65750;47.540;19.090;2023-04-24T00:59:11;5.05;;;3.80;;
75847;SDS011;65750;47.540;19.090;2023-04-24T01:01:38;4.97;;;4.05;;
75847;SDS011;65750;47.540;19.090;2023-04-24T01:04:07;5.60;;;4.20;;
75847;SDS011;65750;47.540;19.090;2023-04-24T01:06:38;5.05;;;3.90;;
75847;SDS011;65750;47.540;19.090;2023-04-24T01:09:05;6.77;;;4.20;;
75847;SDS011;65750;47.540;19.090;2023-04-24T01:11:34;5.00;;;3.92;;
75847;SDS011;65750;47.540;19.090;2023-04-24T01:14:04;5.50;;;3.75;;
75847;SDS011;65750;47.540;19.090;2023-04-24T01:16:31;4.95;;;3.78;;
75847;SDS011;65750;47.540;19.090;2023-04-24T01:19:00;4.60;;;3.67;;
75847;SDS011;65750;47.540;19.090;2023-04-24T01:21:28;5.07;;;4.03;;
75847;SDS011;65750;47.540;19.090;2023-04-24T01:23:57;5.50;;;4.00;;
75847;SDS011;65750;47.540;19.090;2023-04-24T01:26:24;6.40;;;4.30;;
75847;SDS011;65750;47.540;19.090;2023-04-24T01:28:51;5.50;;;3.70;;
75847;SDS011;65750;47.540;19.090;2023-04-24T01:31:19;5.55;;;4.03;;
75847;SDS011;65750;47.540;19.090;2023-04-24T01:33:46;5.00;;;4.07;;
75847;SDS011;65750;47.540;19.090;2023-04-24T01:36:14;5.22;;;4.10;;
75847;SDS011;65750;47.540;19.090;2023-04-24T01:38:41;5.35;;;3.90;;
75847;SDS011;65750;47.540;19.090;2023-04-24T01:41:10;5.30;;;4.03;;
75847;SDS011;65750;47.540;19.090;2023-04-24T01:43:37;5.62;;;4.20;;
75847;SDS011;65750;47.540;19.090;2023-04-24T01:46:05;4.80;;;3.90;;
75847;SDS011;65750;47.540;19.090;2023-04-24T01:48:34;4.70;;;3.87;;
75847;SDS011;65750;47.540;19.090;2023-04-24T01:51:02;4.82;;;3.83;;
75847;SDS011;65750;47.540;19.090;2023-04-24T01:53:29;4.95;;;3.72;;
75847;SDS011;65750;47.540;19.090;2023-04-24T01:55:56;5.15;;;3.95;;
75847;SDS011;65750;47.540;19.090;2023-04-24T01:58:25;5.33;;;4.10;;
75847;SDS011;65750;47.540;19.090;2023-04-24T02:00:55;4.62;;;3.80;;
75847;SDS011;65750;47.540;19.090;2023-04-24T02:03:23;6.35;;;3.90;;
75847;SDS011;65750;47.540;19.090;2023-04-24T02:05:50;6.10;;;4.18;;
75847;SDS011;65750;47.540;19.090;2023-04-24T02:08:17;6.20;;;4.35;;
75847;SDS011;65750;47.540;19.090;2023-04-24T02:10:44;5.50;;;3.97;;
75847;SDS011;65750;47.540;19.090;2023-04-24T02:13:11;4.97;;;3.70;;
75847;SDS011;65750;47.540;19.090;2023-04-24T02:15:39;5.28;;;3.90;;
75847;SDS011;65750;47.540;19.090;2023-04-24T02:18:06;4.75;;;3.55;;
75847;SDS011;65750;47.540;19.090;2023-04-24T02:20:34;6.37;;;4.25;;
75847;SDS011;65750;47.540;19.090;2023-04-24T02:23:01;5.07;;;3.83;;
75847;SDS011;65750;47.540;19.090;2023-04-24T02:25:28;4.50;;;3.62;;
75847;SDS011;65750;47.540;19.090;2023-04-24T02:27:55;5.90;;;4.15;;
75847;SDS011;65750;47.540;19.090;2023-04-24T02:30:22;7.07;;;4.03;;
75847;SDS011;65750;47.540;19.090;2023-04-24T02:32:51;5.82;;;4.10;;
75847;SDS011;65750;47.540;19.090;2023-04-24T02:35:18;5.10;;;4.07;;
75847;SDS011;65750;47.540;19.090;2023-04-24T02:37:45;5.25;;;4.07;;
75847;SDS011;65750;47.540;19.090;2023-04-24T02:40:12;4.95;;;3.72;;
75847;SDS011;65750;47.540;19.090;2023-04-24T02:42:40;4.70;;;3.70;;
75847;SDS011;65750;47.540;19.090;2023-04-24T02:45:07;4.65;;;4.07;;
75847;SDS011;65750;47.540;19.090;2023-04-24T02:47:34;5.53;;;4.20;;
75847;SDS011;65750;47.540;19.090;2023-04-24T02:50:04;5.20;;;3.92;;
75847;SDS011;65750;47.540;19.090;2023-04-24T02:52:33;5.20;;;3.75;;
75847;SDS011;65750;47.540;19.090;2023-04-24T02:55:00;4.68;;;3.55;;
75847;SDS011;65750;47.540;19.090;2023-04-24T02:57:27;4.82;;;3.72;;
75847;SDS011;65750;47.540;19.090;2023-04-24T02:59:54;5.03;;;3.80;;
75847;SDS011;65750;47.540;19.090;2023-04-24T03:02:21;5.90;;;3.90;;
75847;SDS011;65750;47.540;19.090;2023-04-24T03:04:48;6.60;;;3.78;;
75847;SDS011;65750;47.540;19.090;2023-04-24T03:07:17;4.45;;;3.60;;
75847;SDS011;65750;47.540;19.090;2023-04-24T03:09:46;4.62;;;3.70;;
75847;SDS011;65750;47.540;19.090;2023-04-24T03:12:14;4.80;;;3.70;;
75847;SDS011;65750;47.540;19.090;2023-04-24T03:14:43;5.28;;;4.22;;
75847;SDS011;65750;47.540;19.090;2023-04-24T03:17:10;4.55;;;3.85;;
75847;SDS011;65750;47.540;19.090;2023-04-24T03:19:37;5.03;;;4.00;;
75847;SDS011;65750;47.540;19.090;2023-04-24T03:22:04;5.22;;;3.85;;
75847;SDS011;65750;47.540;19.090;2023-04-24T03:24:33;4.27;;;3.37;;
75847;SDS011;65750;47.540;19.090;2023-04-24T03:27:00;4.93;;;4.00;;
75847;SDS011;65750;47.540;19.090;2023-04-24T03:29:30;4.90;;;3.95;;
75847;SDS011;65750;47.540;19.090;2023-04-24T03:31:57;4.55;;;3.87;;
75847;SDS011;65750;47.540;19.090;2023-04-24T03:34:25;5.15;;;3.80;;
75847;SDS011;65750;47.540;19.090;2023-04-24T03:36:52;4.93;;;3.63;;
75847;SDS011;65750;47.540;19.090;2023-04-24T03:39:20;5.10;;;3.90;;
75847;SDS011;65750;47.540;19.090;2023-04-24T03:41:49;4.93;;;3.92;;
75847;SDS011;65750;47.540;19.090;2023-04-24T03:44:17;4.90;;;3.62;;
75847;SDS011;65750;47.540;19.090;2023-04-24T03:46:44;5.00;;;3.60;;
75847;SDS011;65750;47.540;19.090;2023-04-24T03:49:12;4.73;;;3.63;;
75847;SDS011;65750;47.540;19.090;2023-04-24T03:51:40;5.10;;;3.97;;
75847;SDS011;65750;47.540;19.090;2023-04-24T03:54:08;4.93;;;3.60;;
75847;SDS011;65750;47.540;19.090;2023-04-24T03:56:35;5.72;;;3.70;;
75847;SDS011;65750;47.540;19.090;2023-04-24T03:59:03;5.65;;;3.78;;
75847;SDS011;65750;47.540;19.090;2023-04-24T04:01:31;5.03;;;3.80;;
75847;SDS011;65750;47.540;19.090;2023-04-24T04:04:02;5.37;;;3.70;;
75847;SDS011;65750;47.540;19.090;2023-04-24T04:06:29;4.43;;;3.53;;
75847;SDS011;65750;47.540;19.090;2023-04-24T04:08:57;4.93;;;4.00;;
75847;SDS011;65750;47.540;19.090;2023-04-24T04:11:24;4.28;;;3.67;;
75847;SDS011;65750;47.540;19.090;2023-04-24T04:13:52;4.50;;;3.43;;
75847;SDS011;65750;47.540;19.090;2023-04-24T04:16:20;5.10;;;3.50;;
75847;SDS011;65750;47.540;19.090;2023-04-24T04:18:48;4.20;;;3.28;;
75847;SDS011;65750;47.540;19.090;2023-04-24T04:21:15;5.25;;;3.87;;
75847;SDS011;65750;47.540;19.090;2023-04-24T04:23:43;4.62;;;3.72;;
75847;SDS011;65750;47.540;19.090;2023-04-24T04:26:11;5.07;;;3.80;;
75847;SDS011;65750;47.540;19.090;2023-04-24T04:28:39;4.80;;;3.80;;
75847;SDS011;65750;47.540;19.090;2023-04-24T04:31:07;4.62;;;3.45;;
75847;SDS011;65750;47.540;19.090;2023-04-24T04:33:36;4.75;;;3.83;;
75847;SDS011;65750;47.540;19.090;2023-04-24T04:36:05;4.57;;;3.50;;
75847;SDS011;65750;47.540;19.090;2023-04-24T04:38:35;5.23;;;3.77;;
75847;SDS011;65750;47.540;19.090;2023-04-24T04:41:03;4.65;;;3.67;;
75847;SDS011;65750;47.540;19.090;2023-04-24T04:43:31;4.35;;;3.35;;
75847;SDS011;65750;47.540;19.090;2023-04-24T04:45:59;4.53;;;3.37;;
75847;SDS011;65750;47.540;19.090;2023-04-24T04:48:30;4.47;;;3.55;;
75847;SDS011;65750;47.540;19.090;2023-04-24T04:50:59;5.80;;;3.70;;
75847;SDS011;65750;47.540;19.090;2023-04-24T04:53:26;4.53;;;3.70;;
75847;SDS011;65750;47.540;19.090;2023-04-24T04:55:53;4.70;;;3.53;;
75847;SDS011;65750;47.540;19.090;2023-04-24T04:58:21;5.12;;;3.70;;
75847;SDS011;65750;47.540;19.090;2023-04-24T05:00:49;4.75;;;3.37;;
75847;SDS011;65750;47.540;19.090;2023-04-24T05:03:20;5.03;;;3.43;;
75847;SDS011;65750;47.540;19.090;2023-04-24T05:05:47;4.65;;;3.67;;
75847;SDS011;65750;47.540;19.090;2023-04-24T05:08:17;4.82;;;3.35;;
75847;SDS011;65750;47.540;19.090;2023-04-24T05:10:44;4.95;;;3.75;;
75847;SDS011;65750;47.540;19.090;2023-04-24T05:13:11;4.45;;;3.70;;
75847;SDS011;65750;47.540;19.090;2023-04-24T05:15:39;4.33;;;3.67;;
75847;SDS011;65750;47.540;19.090;2023-04-24T05:18:06;4.53;;;3.75;;
75847;SDS011;65750;47.540;19.090;2023-04-24T05:20:34;4.45;;;3.83;;
75847;SDS011;65750;47.540;19.090;2023-04-24T05:23:01;4.78;;;3.67;;
75847;SDS011;65750;47.540;19.090;2023-04-24T05:25:31;5.30;;;3.60;;
75847;SDS011;65750;47.540;19.090;2023-04-24T05:28:02;4.77;;;3.90;;
75847;SDS011;65750;47.540;19.090;2023-04-24T05:30:32;4.40;;;3.67;;
75847;SDS011;65750;47.540;19.090;2023-04-24T05:32:59;4.82;;;3.87;;
75847;SDS011;65750;47.540;19.090;2023-04-24T05:35:27;4.57;;;3.70;;
75847;SDS011;65750;47.540;19.090;2023-04-24T05:37:55;4.45;;;3.80;;
75847;SDS011;65750;47.540;19.090;2023-04-24T05:40:22;5.10;;;3.80;;
75847;SDS011;65750;47.540;19.090;2023-04-24T05:42:51;5.00;;;4.00;;
75847;SDS011;65750;47.540;19.090;2023-04-24T05:45:20;4.75;;;3.75;;
75847;SDS011;65750;47.540;19.090;2023-04-24T05:47:47;5.28;;;3.70;;
75847;SDS011;65750;47.540;19.090;2023-04-24T05:50:16;11.32;;;4.57;;
75847;SDS011;65750;47.540;19.090;2023-04-24T05:52:43;8.73;;;4.20;;
75847;SDS011;65750;47.540;19.090;2023-04-24T05:55:11;6.40;;;4.40;;
75847;SDS011;65750;47.540;19.090;2023-04-24T05:57:39;7.57;;;4.10;;
75847;SDS011;65750;47.540;19.090;2023-04-24T06:00:09;7.20;;;4.65;;
75847;SDS011;65750;47.540;19.090;2023-04-24T06:02:39;9.15;;;4.90;;
75847;SDS011;65750;47.540;19.090;2023-04-24T06:05:07;7.17;;;4.20;;
75847;SDS011;65750;47.540;19.090;2023-04-24T06:07:35;6.75;;;4.50;;
75847;SDS011;65750;47.540;19.090;2023-04-24T06:10:02;7.28;;;4.90;;
75847;SDS011;65750;47.540;19.090;2023-04-24T06:12:33;14.75;;;4.85;;
75847;SDS011;65750;47.540;19.090;2023-04-24T06:15:01;7.72;;;4.93;;
75847;SDS011;65750;47.540;19.090;2023-04-24T06:17:30;7.83;;;4.97;;
75847;SDS011;65750;47.540;19.090;2023-04-24T06:19:58;18.17;;;6.10;;
75847;SDS011;65750;47.540;19.090;2023-04-24T06:22:25;35.13;;;8.80;;
75847;SDS011;65750;47.540;19.090;2023-04-24T06:24:52;50.63;;;11.55;;
75847;SDS011;65750;47.540;19.090;2023-04-24T06:27:19;46.33;;;11.50;;
75847;SDS011;65750;47.540;19.090;2023-04-24T06:29:47;42.60;;;10.83;;
75847;SDS011;65750;47.540;19.090;2023-04-24T06:32:20;45.75;;;11.35;;
75847;SDS011;65750;47.540;19.090;2023-04-24T06:34:50;52.00;;;13.27;;
75847;SDS011;65750;47.540;19.090;2023-04-24T06:37:18;43.40;;;12.20;;
75847;SDS011;65750;47.540;19.090;2023-04-24T06:39:46;43.25;;;11.68;;
75847;SDS011;65750;47.540;19.090;2023-04-24T06:42:13;44.07;;;12.20;;
75847;SDS011;65750;47.540;19.090;2023-04-24T06:44:42;51.45;;;12.57;;
75847;SDS011;65750;47.540;19.090;2023-04-24T06:47:10;46.13;;;12.70;;
75847;SDS011;65750;47.540;19.090;2023-04-24T06:49:39;46.20;;;11.98;;
75847;SDS011;65750;47.540;19.090;2023-04-24T06:52:07;46.58;;;12.05;;
75847;SDS011;65750;47.540;19.090;2023-04-24T06:54:35;40.60;;;12.17;;
75847;SDS011;65750;47.540;19.090;2023-04-24T06:57:02;44.10;;;11.82;;
75847;SDS011;65750;47.540;19.090;2023-04-24T06:59:29;37.90;;;12.23;;
75847;SDS011;65750;47.540;19.090;2023-04-24T07:01:57;41.70;;;12.10;;
75847;SDS011;65750;47.540;19.090;2023-04-24T07:04:24;40.17;;;12.15;;
75847;SDS011;65750;47.540;19.090;2023-04-24T07:06:51;43.20;;;12.53;;
75847;SDS011;65750;47.540;19.090;2023-04-24T07:09:22;39.13;;;12.07;;
75847;SDS011;65750;47.540;19.090;2023-04-24T07:11:50;39.08;;;12.02;;
75847;SDS011;65750;47.540;19.090;2023-04-24T07:14:18;34.47;;;11.98;;
75847;SDS011;65750;47.540;19.090;2023-04-24T07:16:46;40.35;;;12.77;;
75847;SDS011;65750;47.540;19.090;2023-04-24T07:19:13;39.30;;;12.20;;
75847;SDS011;65750;47.540;19.090;2023-04-24T07:21:40;33.42;;;11.38;;
75847;SDS011;65750;47.540;19.090;2023-04-24T07:24:07;30.83;;;11.10;;
75847;SDS011;65750;47.540;19.090;2023-04-24T07:26:38;31.02;;;11.18;;
75847;SDS011;65750;47.540;19.090;2023-04-24T07:29:05;36.08;;;11.88;;
75847;SDS011;65750;47.540;19.090;2023-04-24T07:31:33;30.53;;;11.27;;
75847;SDS011;65750;47.540;19.090;2023-04-24T07:34:00;31.90;;;11.93;;
75847;SDS011;65750;47.540;19.090;2023-04-24T07:36:27;28.02;;;11.35;;
75847;SDS011;65750;47.540;19.090;2023-04-24T07:38:54;32.85;;;11.77;;
75847;SDS011;65750;47.540;19.090;2023-04-24T07:41:22;31.05;;;10.65;;
75847;SDS011;65750;47.540;19.090;2023-04-24T07:43:51;30.70;;;12.07;;
75847;SDS011;65750;47.540;19.090;2023-04-24T07:46:19;32.33;;;11.12;;
75847;SDS011;65750;47.540;19.090;2023-04-24T07:48:46;29.98;;;11.38;;
75847;SDS011;65750;47.540;19.090;2023-04-24T07:51:14;25.23;;;10.95;;
75847;SDS011;65750;47.540;19.090;2023-04-24T07:53:41;28.00;;;10.75;;
75847;SDS011;65750;47.540;19.090;2023-04-24T07:56:08;28.93;;;11.27;;
75847;SDS011;65750;47.540;19.090;2023-04-24T07:58:36;27.13;;;11.18;;
75847;SDS011;65750;47.540;19.090;2023-04-24T08:01:04;27.75;;;11.27;;
75847;SDS011;65750;47.540;19.090;2023-04-24T08:03:32;28.35;;;11.10;;
75847;SDS011;65750;47.540;19.090;2023-04-24T08:05:59;23.02;;;10.25;;
75847;SDS011;65750;47.540;19.090;2023-04-24T08:08:26;30.63;;;10.50;;
75847;SDS011;65750;47.540;19.090;2023-04-24T08:10:53;25.23;;;10.85;;
75847;SDS011;65750;47.540;19.090;2023-04-24T08:13:21;23.08;;;10.55;;
75847;SDS011;65750;47.540;19.090;2023-04-24T08:15:48;28.12;;;10.43;;
75847;SDS011;65750;47.540;19.090;2023-04-24T08:18:17;21.80;;;9.80;;
75847;SDS011;65750;47.540;19.090;2023-04-24T08:20:44;23.30;;;10.83;;
75847;SDS011;65750;47.540;19.090;2023-04-24T08:23:11;24.65;;;10.00;;
75847;SDS011;65750;47.540;19.090;2023-04-24T08:25:38;21.85;;;9.50;;
75847;SDS011;65750;47.540;19.090;2023-04-24T08:28:06;21.23;;;9.93;;
75847;SDS011;65750;47.540;19.090;2023-04-24T08:30:35;23.38;;;9.98;;
75847;SDS011;65750;47.540;19.090;2023-04-24T08:33:04;22.00;;;9.60;;
75847;SDS011;65750;47.540;19.090;2023-04-24T08:35:32;22.42;;;9.82;;
75847;SDS011;65750;47.540;19.090;2023-04-24T08:37:59;22.40;;;9.68;;
75847;SDS011;65750;47.540;19.090;2023-04-24T08:40:27;18.42;;;9.38;;
75847;SDS011;65750;47.540;19.090;2023-04-24T08:42:55;21.85;;;8.95;;
75847;SDS011;65750;47.540;19.090;2023-04-24T08:45:23;22.07;;;9.00;;
75847;SDS011;65750;47.540;19.090;2023-04-24T08:47:50;22.42;;;9.60;;
75847;SDS011;65750;47.540;19.090;2023-04-24T08:50:19;19.75;;;9.43;;
75847;SDS011;65750;47.540;19.090;2023-04-24T08:52:48;23.12;;;9.88;;
75847;SDS011;65750;47.540;19.090;2023-04-24T08:55:16;19.30;;;9.00;;
75847;SDS011;65750;47.540;19.090;2023-04-24T08:57:45;19.93;;;9.33;;
75847;SDS011;65750;47.540;19.090;2023-04-24T09:00:15;21.35;;;10.32;;
75847;SDS011;65750;47.540;19.090;2023-04-24T09:02:43;17.45;;;9.57;;
75847;SDS011;65750;47.540;19.090;2023-04-24T09:05:10;17.58;;;8.57;;
75847;SDS011;65750;47.540;19.090;2023-04-24T09:07:38;18.15;;;9.25;;
75847;SDS011;65750;47.540;19.090;2023-04-24T09:10:08;16.17;;;9.13;;
75847;SDS011;65750;47.540;19.090;2023-04-24T09:12:35;19.37;;;9.27;;
75847;SDS011;65750;47.540;19.090;2023-04-24T09:15:02;18.60;;;9.13;;
75847;SDS011;65750;47.540;19.090;2023-04-24T09:17:30;19.00;;;9.07;;
75847;SDS011;65750;47.540;19.090;2023-04-24T09:19:57;19.25;;;9.07;;
75847;SDS011;65750;47.540;19.090;2023-04-24T09:22:24;17.63;;;8.87;;
75847;SDS011;65750;47.540;19.090;2023-04-24T09:24:59;17.83;;;8.82;;
75847;SDS011;65750;47.540;19.090;2023-04-24T09:27:30;20.73;;;9.15;;
75847;SDS011;65750;47.540;19.090;2023-04-24T09:29:57;12.48;;;7.93;;
75847;SDS011;65750;47.540;19.090;2023-04-24T09:32:25;23.15;;;11.18;;
75847;SDS011;65750;47.540;19.090;2023-04-24T09:35:04;73.27;;;47.57;;
75847;SDS011;65750;47.540;19.090;2023-04-24T09:37:34;67.55;;;46.25;;
75847;SDS011;65750;47.540;19.090;2023-04-24T09:40:11;30.40;;;21.35;;
75847;SDS011;65750;47.540;19.090;2023-04-24T09:42:45;21.65;;;14.75;;
75847;SDS011;65750;47.540;19.090;2023-04-24T09:45:13;15.98;;;9.23;;
75847;SDS011;65750;47.540;19.090;2023-04-24T09:47:40;36.73;;;19.47;;
75847;SDS011;65750;47.540;19.090;2023-04-24T09:50:11;24.10;;;15.73;;
75847;SDS011;65750;47.540;19.090;2023-04-24T09:52:40;24.12;;;13.93;;
75847;SDS011;65750;47.540;19.090;2023-04-24T09:55:13;21.98;;;12.43;;
75847;SDS011;65750;47.540;19.090;2023-04-24T09:57:48;20.83;;;10.82;;
75847;SDS011;65750;47.540;19.090;2023-04-24T10:00:23;19.67;;;11.40;;
75847;SDS011;65750;47.540;19.090;2023-04-24T10:02:56;22.45;;;11.43;;
75847;SDS011;65750;47.540;19.090;2023-04-24T10:05:24;21.67;;;10.63;;
75847;SDS011;65750;47.540;19.090;2023-04-24T10:07:55;21.42;;;10.95;;
75847;SDS011;65750;47.540;19.090;2023-04-24T10:10:23;19.25;;;10.70;;
75847;SDS011;65750;47.540;19.090;2023-04-24T10:12:51;19.80;;;10.30;;
75847;SDS011;65750;47.540;19.090;2023-04-24T10:15:19;19.90;;;9.88;;
75847;SDS011;65750;47.540;19.090;2023-04-24T10:17:47;18.17;;;9.98;;
75847;SDS011;65750;47.540;19.090;2023-04-24T10:20:21;22.83;;;9.60;;
75847;SDS011;65750;47.540;19.090;2023-04-24T10:22:49;19.42;;;9.65;;
75847;SDS011;65750;47.540;19.090;2023-04-24T10:25:18;17.57;;;9.40;;
75847;SDS011;65750;47.540;19.090;2023-04-24T10:27:47;16.65;;;9.48;;
75847;SDS011;65750;47.540;19.090;2023-04-24T10:30:16;18.42;;;9.60;;
75847;SDS011;65750;47.540;19.090;2023-04-24T10:32:44;16.50;;;9.25;;
75847;SDS011;65750;47.540;19.090;2023-04-24T10:35:12;13.20;;;8.35;;
75847;SDS011;65750;47.540;19.090;2023-04-24T10:37:41;13.67;;;8.00;;
75847;SDS011;65750;47.540;19.090;2023-04-24T10:40:10;19.30;;;8.15;;
75847;SDS011;65750;47.540;19.090;2023-04-24T10:42:39;15.18;;;7.82;;
75847;SDS011;65750;47.540;19.090;2023-04-24T10:45:17;15.13;;;8.35;;
75847;SDS011;65750;47.540;19.090;2023-04-24T10:50:42;16.07;;;8.07;;
75847;SDS011;65750;47.540;19.090;2023-04-24T10:53:14;15.73;;;8.00;;
75847;SDS011;65750;47.540;19.090;2023-04-24T10:55:44;15.73;;;7.78;;
75847;SDS011;65750;47.540;19.090;2023-04-24T10:58:12;18.98;;;7.70;;
75847;SDS011;65750;47.540;19.090;2023-04-24T11:00:41;17.87;;;7.82;;
75847;SDS011;65750;47.540;19.090;2023-04-24T11:03:23;15.47;;;7.60;;
75847;SDS011;65750;47.540;19.090;2023-04-24T11:05:52;13.65;;;7.62;;
75847;SDS011;65750;47.540;19.090;2023-04-24T11:08:23;14.90;;;7.75;;
75847;SDS011;65750;47.540;19.090;2023-04-24T11:10:57;15.77;;;7.85;;
75847;SDS011;65750;47.540;19.090;2023-04-24T11:16:27;13.83;;;7.07;;
75847;SDS011;65750;47.540;19.090;2023-04-24T11:18:59;12.15;;;7.40;;
75847;SDS011;65750;47.540;19.090;2023-04-24T11:21:31;11.63;;;7.10;;
75847;SDS011;65750;47.540;19.090;2023-04-24T11:23:58;11.77;;;7.30;;
75847;SDS011;65750;47.540;19.090;2023-04-24T11:26:53;13.65;;;7.55;;
75847;SDS011;65750;47.540;19.090;2023-04-24T11:29:20;13.13;;;7.47;;
75847;SDS011;65750;47.540;19.090;2023-04-24T11:31:49;10.13;;;7.07;;
75847;SDS011;65750;47.540;19.090;2023-04-24T11:34:17;13.35;;;7.50;;
75847;SDS011;65750;47.540;19.090;2023-04-24T11:36:44;11.45;;;7.20;;
75847;SDS011;65750;47.540;19.090;2023-04-24T11:39:12;13.38;;;6.95;;
75847;SDS011;65750;47.540;19.090;2023-04-24T11:41:39;14.57;;;7.73;;
75847;SDS011;65750;47.540;19.090;2023-04-24T11:44:07;13.75;;;7.30;;
75847;SDS011;65750;47.540;19.090;2023-04-24T11:46:35;13.30;;;7.78;;
75847;SDS011;65750;47.540;19.090;2023-04-24T11:49:04;12.70;;;6.90;;
75847;SDS011;65750;47.540;19.090;2023-04-24T11:51:32;11.38;;;7.22;;
75847;SDS011;65750;47.540;19.090;2023-04-24T11:53:59;13.70;;;7.37;;
75847;SDS011;65750;47.540;19.090;2023-04-24T11:56:26;13.77;;;7.50;;
75847;SDS011;65750;47.540;19.090;2023-04-24T11:58:54;11.30;;;7.43;;
75847;SDS011;65750;47.540;19.090;2023-04-24T12:01:21;11.63;;;7.60;;
75847;SDS011;65750;47.540;19.090;2023-04-24T12:03:49;13.38;;;7.40;;
75847;SDS011;65750;47.540;19.090;2023-04-24T12:06:18;13.20;;;8.17;;
75847;SDS011;65750;47.540;19.090;2023-04-24T12:08:46;11.55;;;7.32;;
75847;SDS011;65750;47.540;19.090;2023-04-24T12:11:14;12.05;;;7.47;;
75847;SDS011;65750;47.540;19.090;2023-04-24T12:13:44;12.80;;;7.68;;
75847;SDS011;65750;47.540;19.090;2023-04-24T12:16:11;10.65;;;7.32;;
75847;SDS011;65750;47.540;19.090;2023-04-24T12:18:43;13.33;;;7.93;;
75847;SDS011;65750;47.540;19.090;2023-04-24T12:21:18;11.57;;;7.95;;
75847;SDS011;65750;47.540;19.090;2023-04-24T12:23:47;11.27;;;7.55;;
75847;SDS011;65750;47.540;19.090;2023-04-24T12:26:16;11.80;;;8.13;;
75847;SDS011;65750;47.540;19.090;2023-04-24T12:28:46;13.90;;;8.18;;
75847;SDS011;65750;47.540;19.090;2023-04-24T12:31:14;11.77;;;8.07;;
75847;SDS011;65750;47.540;19.090;2023-04-24T12:33:42;12.43;;;8.32;;
75847;SDS011;65750;47.540;19.090;2023-04-24T12:36:09;12.52;;;8.15;;
75847;SDS011;65750;47.540;19.090;2023-04-24T12:38:39;11.02;;;7.60;;
75847;SDS011;65750;47.540;19.090;2023-04-24T12:41:12;11.95;;;8.00;;
75847;SDS011;65750;47.540;19.090;2023-04-24T12:43:50;11.77;;;7.83;;
75847;SDS011;65750;47.540;19.090;2023-04-24T12:46:18;11.27;;;7.57;;
75847;SDS011;65750;47.540;19.090;2023-04-24T12:48:45;10.38;;;7.28;;
75847;SDS011;65750;47.540;19.090;2023-04-24T12:51:12;13.07;;;8.23;;
75847;SDS011;65750;47.540;19.090;2023-04-24T12:53:41;10.80;;;7.62;;
75847;SDS011;65750;47.540;19.090;2023-04-24T12:56:08;12.17;;;7.83;;
75847;SDS011;65750;47.540;19.090;2023-04-24T12:58:35;13.90;;;7.80;;
75847;SDS011;65750;47.540;19.090;2023-04-24T13:01:02;14.32;;;7.90;;
75847;SDS011;65750;47.540;19.090;2023-04-24T13:03:30;11.82;;;8.07;;
75847;SDS011;65750;47.540;19.090;2023-04-24T13:05:57;11.43;;;7.50;;
75847;SDS011;65750;47.540;19.090;2023-04-24T13:08:24;11.13;;;7.63;;
75847;SDS011;65750;47.540;19.090;2023-04-24T13:10:53;10.98;;;7.30;;
75847;SDS011;65750;47.540;19.090;2023-04-24T13:13:20;10.93;;;7.85;;
75847;SDS011;65750;47.540;19.090;2023-04-24T13:15:47;10.20;;;7.20;;
75847;SDS011;65750;47.540;19.090;2023-04-24T13:18:15;11.63;;;7.18;;
75847;SDS011;65750;47.540;19.090;2023-04-24T13:20:42;15.07;;;7.47;;
75847;SDS011;65750;47.540;19.090;2023-04-24T13:23:09;12.40;;;7.82;;
75847;SDS011;65750;47.540;19.090;2023-04-24T13:25:36;15.82;;;7.20;;
75847;SDS011;65750;47.540;19.090;2023-04-24T13:28:05;14.85;;;7.30;;
75847;SDS011;65750;47.540;19.090;2023-04-24T13:30:32;13.13;;;7.07;;
75847;SDS011;65750;47.540;19.090;2023-04-24T13:33:00;12.93;;;7.30;;
75847;SDS011;65750;47.540;19.090;2023-04-24T13:35:27;26.25;;;8.43;;
75847;SDS011;65750;47.540;19.090;2023-04-24T13:37:54;22.70;;;9.07;;
75847;SDS011;65750;47.540;19.090;2023-04-24T13:40:21;34.10;;;11.10;;
75847;SDS011;65750;47.540;19.090;2023-04-24T13:42:49;36.15;;;11.70;;
75847;SDS011;65750;47.540;19.090;2023-04-24T13:45:17;36.70;;;11.87;;
75847;SDS011;65750;47.540;19.090;2023-04-24T13:47:45;26.12;;;10.50;;
75847;SDS011;65750;47.540;19.090;2023-04-24T13:50:12;27.15;;;10.18;;
75847;SDS011;65750;47.540;19.090;2023-04-24T13:52:39;28.33;;;10.32;;
75847;SDS011;65750;47.540;19.090;2023-04-24T13:55:07;36.55;;;11.48;;
75847;SDS011;65750;47.540;19.090;2023-04-24T13:57:34;33.37;;;10.93;;
75847;SDS011;65750;47.540;19.090;2023-04-24T14:00:01;33.55;;;11.30;;
75847;SDS011;65750;47.540;19.090;2023-04-24T14:02:34;27.52;;;10.65;;
75847;SDS011;65750;47.540;19.090;2023-04-24T14:05:01;35.08;;;11.40;;
75847;SDS011;65750;47.540;19.090;2023-04-24T14:07:30;27.60;;;10.90;;
75847;SDS011;65750;47.540;19.090;2023-04-24T14:09:57;25.80;;;10.37;;
75847;SDS011;65750;47.540;19.090;2023-04-24T14:12:24;29.90;;;10.60;;
75847;SDS011;65750;47.540;19.090;2023-04-24T14:14:52;25.10;;;10.18;;
75847;SDS011;65750;47.540;19.090;2023-04-24T14:17:19;22.52;;;10.07;;
75847;SDS011;65750;47.540;19.090;2023-04-24T14:19:48;30.12;;;10.50;;
75847;SDS011;65750;47.540;19.090;2023-04-24T14:22:15;26.93;;;10.60;;
75847;SDS011;65750;47.540;19.090;2023-04-24T14:24:43;20.45;;;9.32;;
75847;SDS011;65750;47.540;19.090;2023-04-24T14:27:10;21.15;;;9.43;;
75847;SDS011;65750;47.540;19.090;2023-04-24T14:29:37;22.23;;;9.98;;
75847;SDS011;65750;47.540;19.090;2023-04-24T14:32:04;22.98;;;9.57;;
75847;SDS011;65750;47.540;19.090;2023-04-24T14:34:31;20.77;;;9.27;;
75847;SDS011;65750;47.540;19.090;2023-04-24T14:37:00;20.62;;;9.60;;